createdAt,value
2019-05-23T00:00:45.920Z,1008.55
2019-05-23T00:01:46.029Z,1008.51
2019-05-23T00:02:45.882Z,1008.51
2019-05-23T00:03:45.921Z,1008.46
2019-05-23T00:04:45.919Z,1008.49
2019-05-23T00:05:46.019Z,1008.47
2019-05-23T00:06:46.002Z,1008.45
2019-05-23T00:07:45.939Z,1008.48
2019-05-23T00:08:45.951Z,1008.45
2019-05-23T00:09:46.012Z,1008.43
2019-05-23T00:10:45.945Z,1008.44
2019-05-23T00:11:46.017Z,1008.43
2019-05-23T00:12:45.949Z,1008.44
2019-05-23T00:13:46.015Z,1008.43
2019-05-23T00:14:46.014Z,1008.41
2019-05-23T00:15:45.943Z,1008.44
2019-05-23T00:16:45.960Z,1008.44
2019-05-23T00:17:45.965Z,1008.40
2019-05-23T00:18:46.020Z,1008.45
2019-05-23T00:19:46.003Z,1008.43
2019-05-23T00:20:46.023Z,1008.41
2019-05-23T00:21:45.948Z,1008.44
2019-05-23T00:22:46.032Z,1008.41
2019-05-23T00:23:45.915Z,1008.40
2019-05-23T00:24:45.957Z,1008.44
2019-05-23T00:25:46.022Z,1008.42
2019-05-23T00:26:46.026Z,1008.43
2019-05-23T00:27:46.033Z,1008.42
2019-05-23T00:28:45.981Z,1008.38
2019-05-23T00:29:45.966Z,1008.36
2019-05-23T00:30:45.955Z,1008.36
2019-05-23T00:31:46.071Z,1008.38
2019-05-23T00:32:45.988Z,1008.45
2019-05-23T00:33:45.994Z,1008.38
2019-05-23T00:34:45.957Z,1008.39
2019-05-23T00:35:46.033Z,1008.42
2019-05-23T00:36:46.036Z,1008.43
2019-05-23T00:37:46.047Z,1008.42
2019-05-23T00:38:46.039Z,1008.43
2019-05-23T00:39:45.960Z,1008.44
2019-05-23T00:40:45.962Z,1008.46
2019-05-23T00:41:45.976Z,1008.46
2019-05-23T00:42:45.982Z,1008.51
2019-05-23T00:43:45.979Z,1008.54
2019-05-23T00:44:45.977Z,1008.54
2019-05-23T00:45:45.965Z,1008.60
2019-05-23T00:46:45.978Z,1008.65
2019-05-23T00:47:46.021Z,1008.64
2019-05-23T00:48:46.009Z,1008.62
2019-05-23T00:49:46.028Z,1008.68
2019-05-23T00:50:46.103Z,1008.68
2019-05-23T00:51:45.936Z,1008.69
2019-05-23T00:52:45.999Z,1008.69
2019-05-23T00:53:45.929Z,1008.65
2019-05-23T00:54:46.059Z,1008.70
2019-05-23T00:55:46.049Z,1008.65
2019-05-23T00:56:46.038Z,1008.61
2019-05-23T00:57:46.050Z,1008.66
2019-05-23T00:58:46.050Z,1008.62
2019-05-23T00:59:46.040Z,1008.62
2019-05-23T01:00:46.050Z,1008.66
2019-05-23T01:01:46.069Z,1008.64
2019-05-23T01:02:45.993Z,1008.67
2019-05-23T01:03:45.945Z,1008.66
2019-05-23T01:04:45.986Z,1008.63
2019-05-23T01:05:46.007Z,1008.68
2019-05-23T01:06:45.956Z,1008.67
2019-05-23T01:07:45.920Z,1008.65
2019-05-23T01:08:45.975Z,1008.66
2019-05-23T01:09:45.927Z,1008.68
2019-05-23T01:10:46.032Z,1008.67
2019-05-23T01:11:45.950Z,1008.66
2019-05-23T01:12:46.046Z,1008.67
2019-05-23T01:13:45.950Z,1008.63
2019-05-23T01:14:45.971Z,1008.65
2019-05-23T01:15:45.988Z,1008.64
2019-05-23T01:16:46.065Z,1008.65
2019-05-23T01:17:46.021Z,1008.63
2019-05-23T01:18:46.003Z,1008.68
2019-05-23T01:19:46.011Z,1008.62
2019-05-23T01:20:45.953Z,1008.63
2019-05-23T01:21:45.999Z,1008.64
2019-05-23T01:22:46.013Z,1008.62
2019-05-23T01:23:45.994Z,1008.63
2019-05-23T01:24:46.076Z,1008.64
2019-05-23T01:25:46.076Z,1008.60
2019-05-23T01:26:46.069Z,1008.64
2019-05-23T01:27:46.000Z,1008.60
2019-05-23T01:28:46.090Z,1008.60
2019-05-23T01:29:49.724Z,1008.57
2019-05-23T01:30:46.079Z,1008.62
2019-05-23T01:31:46.045Z,1008.58
2019-05-23T01:32:46.001Z,1008.59
2019-05-23T01:33:46.076Z,1008.59
2019-05-23T01:34:46.118Z,1008.57
2019-05-23T01:35:46.059Z,1008.60
2019-05-23T01:36:45.982Z,1008.60
2019-05-23T01:37:46.069Z,1008.58
2019-05-23T01:38:45.964Z,1008.58
2019-05-23T01:39:45.947Z,1008.60
2019-05-23T01:40:46.058Z,1008.62
2019-05-23T01:41:46.065Z,1008.63
2019-05-23T01:42:45.999Z,1008.62
2019-05-23T01:43:46.068Z,1008.58
2019-05-23T01:44:46.068Z,1008.59
2019-05-23T01:45:46.033Z,1008.58
2019-05-23T01:46:46.056Z,1008.60
2019-05-23T01:47:45.982Z,1008.59
2019-05-23T01:48:45.956Z,1008.61
2019-05-23T01:49:45.999Z,1008.64
2019-05-23T01:50:45.998Z,1008.65
2019-05-23T01:51:46.041Z,1008.64
2019-05-23T01:52:45.952Z,1008.66
2019-05-23T01:53:45.948Z,1008.65
2019-05-23T01:54:45.972Z,1008.64
2019-05-23T01:55:46.088Z,1008.65
2019-05-23T01:56:46.030Z,1008.66
2019-05-23T01:57:46.098Z,1008.61
2019-05-23T01:58:46.023Z,1008.64
2019-05-23T01:59:46.100Z,1008.63
2019-05-23T02:00:46.112Z,1008.65
2019-05-23T02:01:46.029Z,1008.66
2019-05-23T02:02:46.041Z,1008.63
2019-05-23T02:03:46.091Z,1008.64
2019-05-23T02:04:46.106Z,1008.61
2019-05-23T02:05:46.083Z,1008.66
2019-05-23T02:06:46.038Z,1008.68
2019-05-23T02:07:46.033Z,1008.68
2019-05-23T02:08:46.026Z,1008.65
2019-05-23T02:09:46.053Z,1008.65
2019-05-23T02:10:46.026Z,1008.64
2019-05-23T02:11:46.096Z,1008.64
2019-05-23T02:12:46.089Z,1008.63
2019-05-23T02:13:46.034Z,1008.64
2019-05-23T02:14:46.106Z,1008.66
2019-05-23T02:15:46.033Z,1008.64
2019-05-23T02:16:46.035Z,1008.62
2019-05-23T02:17:46.043Z,1008.65
2019-05-23T02:18:46.070Z,1008.62
2019-05-23T02:19:46.053Z,1008.61
2019-05-23T02:20:46.107Z,1008.62
2019-05-23T02:21:46.110Z,1008.61
2019-05-23T02:22:46.059Z,1008.62
2019-05-23T02:23:46.114Z,1008.62
2019-05-23T02:24:46.189Z,1008.60
2019-05-23T02:25:46.088Z,1008.59
2019-05-23T02:26:46.003Z,1008.61
2019-05-23T02:27:46.005Z,1008.66
2019-05-23T02:28:46.072Z,1008.64
2019-05-23T02:29:46.005Z,1008.63
2019-05-23T02:30:46.097Z,1008.62
2019-05-23T02:31:46.103Z,1008.64
2019-05-23T02:32:46.057Z,1008.61
2019-05-23T02:33:46.030Z,1008.62
2019-05-23T02:34:46.070Z,1008.62
2019-05-23T02:35:46.063Z,1008.60
2019-05-23T02:36:46.127Z,1008.61
2019-05-23T02:37:46.122Z,1008.59
2019-05-23T02:38:46.055Z,1008.60
2019-05-23T02:39:46.052Z,1008.62
2019-05-23T02:40:46.119Z,1008.60
2019-05-23T02:41:46.062Z,1008.61
2019-05-23T02:42:46.149Z,1008.62
2019-05-23T02:43:46.054Z,1008.61
2019-05-23T02:44:46.061Z,1008.57
2019-05-23T02:45:46.067Z,1008.61
2019-05-23T02:46:46.067Z,1008.59
2019-05-23T02:47:46.060Z,1008.58
2019-05-23T02:48:46.135Z,1008.59
2019-05-23T02:49:46.059Z,1008.59
2019-05-23T02:50:46.060Z,1008.62
2019-05-23T02:51:46.145Z,1008.61
2019-05-23T02:52:46.141Z,1008.60
2019-05-23T02:53:46.064Z,1008.59
2019-05-23T02:54:46.094Z,1008.58
2019-05-23T02:55:46.088Z,1008.56
2019-05-23T02:56:46.033Z,1008.59
2019-05-23T02:57:46.121Z,1008.60
2019-05-23T02:58:46.070Z,1008.58
2019-05-23T02:59:46.072Z,1008.57
2019-05-23T03:00:54.363Z,1008.58
2019-05-23T03:01:46.093Z,1008.59
2019-05-23T03:02:46.064Z,1008.57
2019-05-23T03:03:46.121Z,1008.57
2019-05-23T03:04:46.130Z,1008.53
2019-05-23T03:05:46.077Z,1008.54
2019-05-23T03:06:46.086Z,1008.54
2019-05-23T03:07:46.171Z,1008.54
2019-05-23T03:08:46.153Z,1008.50
2019-05-23T03:09:46.143Z,1008.49
2019-05-23T03:10:46.078Z,1008.51
2019-05-23T03:11:46.077Z,1008.49
2019-05-23T03:12:46.075Z,1008.49
2019-05-23T03:13:46.178Z,1008.47
2019-05-23T03:14:46.078Z,1008.51
2019-05-23T03:15:46.083Z,1008.47
2019-05-23T03:16:46.211Z,1008.42
2019-05-23T03:17:46.100Z,1008.44
2019-05-23T03:18:46.100Z,1008.44
2019-05-23T03:19:46.095Z,1008.44
2019-05-23T03:20:46.153Z,1008.40
2019-05-23T03:21:46.158Z,1008.43
2019-05-23T03:22:46.244Z,1008.45
2019-05-23T03:23:46.104Z,1008.44
2019-05-23T03:24:46.176Z,1008.46
2019-05-23T03:25:46.157Z,1008.43
2019-05-23T03:26:46.160Z,1008.46
2019-05-23T03:27:46.173Z,1008.47
2019-05-23T03:28:46.179Z,1008.44
2019-05-23T03:29:46.171Z,1008.45
2019-05-23T03:30:46.094Z,1008.45
2019-05-23T03:31:46.178Z,1008.49
2019-05-23T03:32:46.173Z,1008.47
2019-05-23T03:33:46.192Z,1008.44
2019-05-23T03:34:46.179Z,1008.46
2019-05-23T03:35:46.315Z,1008.45
2019-05-23T03:36:46.082Z,1008.45
2019-05-23T03:37:46.157Z,1008.46
2019-05-23T03:38:46.079Z,1008.43
2019-05-23T03:39:46.083Z,1008.42
2019-05-23T03:40:46.158Z,1008.43
2019-05-23T03:41:46.160Z,1008.47
2019-05-23T03:42:46.079Z,1008.46
2019-05-23T03:43:46.172Z,1008.43
2019-05-23T03:44:46.156Z,1008.47
2019-05-23T03:45:46.177Z,1008.46
2019-05-23T03:46:46.106Z,1008.49
2019-05-23T03:47:46.170Z,1008.46
2019-05-23T03:48:46.212Z,1008.48
2019-05-23T03:49:46.109Z,1008.45
2019-05-23T03:50:46.170Z,1008.49
2019-05-23T03:51:46.104Z,1008.50
2019-05-23T03:52:46.182Z,1008.48
2019-05-23T03:53:46.193Z,1008.50
2019-05-23T03:54:46.212Z,1008.50
2019-05-23T03:55:46.180Z,1008.48
2019-05-23T03:56:46.127Z,1008.47
2019-05-23T03:57:46.114Z,1008.48
2019-05-23T03:58:46.176Z,1008.49
2019-05-23T03:59:46.181Z,1008.49
2019-05-23T04:00:46.180Z,1008.49
2019-05-23T04:01:48.896Z,1008.47
2019-05-23T04:02:46.118Z,1008.50
2019-05-23T04:03:46.183Z,1008.52
2019-05-23T04:04:46.215Z,1008.51
2019-05-23T04:05:46.169Z,1008.51
2019-05-23T04:07:46.199Z,1008.53
2019-05-23T04:08:46.147Z,1008.52
2019-05-23T04:09:46.189Z,1008.52
2019-05-23T04:10:46.184Z,1008.46
2019-05-23T04:11:46.186Z,1008.51
2019-05-23T04:12:46.192Z,1008.49
2019-05-23T04:13:46.198Z,1008.50
2019-05-23T04:14:46.120Z,1008.52
2019-05-23T04:15:46.185Z,1008.50
2019-05-23T04:16:46.178Z,1008.54
2019-05-23T04:17:46.184Z,1008.51
2019-05-23T04:18:46.122Z,1008.54
2019-05-23T04:19:46.177Z,1008.55
2019-05-23T04:20:46.087Z,1008.51
2019-05-23T04:21:46.190Z,1008.49
2019-05-23T04:22:46.120Z,1008.50
2019-05-23T04:23:46.191Z,1008.54
2019-05-23T04:24:46.165Z,1008.54
2019-05-23T04:25:46.195Z,1008.53
2019-05-23T04:26:46.214Z,1008.52
2019-05-23T04:27:46.151Z,1008.48
2019-05-23T04:28:46.285Z,1008.50
2019-05-23T04:29:46.214Z,1008.49
2019-05-23T04:30:46.141Z,1008.49
2019-05-23T04:32:03.724Z,1008.50
2019-05-23T04:32:46.146Z,1008.52
2019-05-23T04:33:46.262Z,1008.51
2019-05-23T04:34:46.205Z,1008.52
2019-05-23T04:35:46.124Z,1008.49
2019-05-23T04:36:46.107Z,1008.50
2019-05-23T04:37:46.213Z,1008.50
2019-05-23T04:38:46.227Z,1008.52
2019-05-23T04:39:46.211Z,1008.50
2019-05-23T04:40:46.136Z,1008.51
2019-05-23T04:41:46.227Z,1008.49
2019-05-23T04:42:46.209Z,1008.50
2019-05-23T04:43:46.201Z,1008.53
2019-05-23T04:44:46.200Z,1008.52
2019-05-23T04:45:46.232Z,1008.53
2019-05-23T04:46:46.220Z,1008.54
2019-05-23T04:47:46.236Z,1008.56
2019-05-23T04:48:46.222Z,1008.52
2019-05-23T04:49:46.233Z,1008.54
2019-05-23T04:50:46.151Z,1008.56
2019-05-23T04:51:46.164Z,1008.54
2019-05-23T04:52:46.162Z,1008.55
2019-05-23T04:53:46.225Z,1008.56
2019-05-23T04:54:46.230Z,1008.58
2019-05-23T04:55:46.152Z,1008.58
2019-05-23T04:56:46.205Z,1008.58
2019-05-23T04:57:46.313Z,1008.55
2019-05-23T04:58:46.225Z,1008.56
2019-05-23T04:59:46.224Z,1008.53
2019-05-23T05:00:46.225Z,1008.54
2019-05-23T05:01:46.181Z,1008.54
2019-05-23T05:02:46.166Z,1008.56
2019-05-23T05:03:46.227Z,1008.56
2019-05-23T05:04:46.271Z,1008.58
2019-05-23T05:05:46.221Z,1008.57
2019-05-23T05:06:46.220Z,1008.57
2019-05-23T05:07:46.225Z,1008.55
2019-05-23T05:08:46.221Z,1008.57
2019-05-23T05:09:46.221Z,1008.54
2019-05-23T05:10:46.254Z,1008.56
2019-05-23T05:11:46.137Z,1008.55
2019-05-23T05:12:46.228Z,1008.54
2019-05-23T05:13:46.152Z,1008.58
2019-05-23T05:14:46.222Z,1008.56
2019-05-23T05:15:46.155Z,1008.52
2019-05-23T05:16:46.221Z,1008.56
2019-05-23T05:17:46.162Z,1008.57
2019-05-23T05:18:46.242Z,1008.58
2019-05-23T05:19:46.168Z,1008.58
2019-05-23T05:20:46.232Z,1008.60
2019-05-23T05:21:46.230Z,1008.56
2019-05-23T05:22:46.271Z,1008.63
2019-05-23T05:23:46.168Z,1008.64
2019-05-23T05:24:46.153Z,1008.66
2019-05-23T05:25:46.232Z,1008.62
2019-05-23T05:26:46.160Z,1008.68
2019-05-23T05:27:46.234Z,1008.67
2019-05-23T05:28:46.169Z,1008.66
2019-05-23T05:29:46.168Z,1008.68
2019-05-23T05:30:46.159Z,1008.65
2019-05-23T05:31:46.269Z,1008.68
2019-05-23T05:32:46.163Z,1008.68
2019-05-23T05:33:46.240Z,1008.65
2019-05-23T05:34:46.190Z,1008.64
2019-05-23T05:35:46.181Z,1008.65
2019-05-23T05:36:46.268Z,1008.66
2019-05-23T05:37:46.193Z,1008.66
2019-05-23T05:38:46.257Z,1008.63
2019-05-23T05:39:46.275Z,1008.65
2019-05-23T05:40:46.189Z,1008.66
2019-05-23T05:41:46.279Z,1008.64
2019-05-23T05:42:46.184Z,1008.65
2019-05-23T05:43:46.204Z,1008.67
2019-05-23T05:44:46.192Z,1008.66
2019-05-23T05:45:46.194Z,1008.65
2019-05-23T05:46:46.225Z,1008.64
2019-05-23T05:47:46.255Z,1008.67
2019-05-23T05:48:46.199Z,1008.70
2019-05-23T05:49:46.209Z,1008.66
2019-05-23T05:50:46.198Z,1008.69
2019-05-23T05:51:46.192Z,1008.66
2019-05-23T05:52:46.269Z,1008.71
2019-05-23T05:53:46.201Z,1008.73
2019-05-23T05:54:46.266Z,1008.71
2019-05-23T05:55:46.367Z,1008.76
2019-05-23T05:56:46.201Z,1008.75
2019-05-23T05:57:46.264Z,1008.75
2019-05-23T05:58:46.272Z,1008.78
2019-05-23T05:59:46.276Z,1008.78
2019-05-23T06:00:46.216Z,1008.81
2019-05-23T06:01:46.267Z,1008.77
2019-05-23T06:03:02.767Z,1008.81
2019-05-23T06:03:46.279Z,1008.84
2019-05-23T06:04:46.209Z,1008.84
2019-05-23T06:05:46.223Z,1008.87
2019-05-23T06:06:49.847Z,1008.86
2019-05-23T06:07:46.137Z,1008.86
2019-05-23T06:08:46.201Z,1008.88
2019-05-23T06:09:46.183Z,1008.84
2019-05-23T06:10:46.139Z,1008.91
2019-05-23T06:11:46.168Z,1008.90
2019-05-23T06:12:46.176Z,1008.90
2019-05-23T06:13:46.257Z,1008.90
2019-05-23T06:14:46.720Z,1008.92
2019-05-23T06:15:46.237Z,1008.96
2019-05-23T06:16:46.197Z,1008.90
2019-05-23T06:17:46.270Z,1008.94
2019-05-23T06:18:46.265Z,1008.91
2019-05-23T06:19:46.274Z,1008.96
2019-05-23T06:20:46.274Z,1008.93
2019-05-23T06:21:46.206Z,1008.96
2019-05-23T06:22:46.166Z,1008.93
2019-05-23T06:23:46.273Z,1008.94
2019-05-23T06:24:52.021Z,1008.93
2019-05-23T06:25:46.209Z,1008.94
2019-05-23T06:26:46.292Z,1008.93
2019-05-23T06:27:46.253Z,1008.91
2019-05-23T06:28:46.222Z,1008.94
2019-05-23T06:29:46.236Z,1008.92
2019-05-23T06:30:46.289Z,1008.92
2019-05-23T06:31:46.267Z,1008.91
2019-05-23T06:32:46.294Z,1008.89
2019-05-23T06:33:46.227Z,1008.88
2019-05-23T06:34:46.293Z,1008.91
2019-05-23T06:35:46.295Z,1008.88
2019-05-23T06:36:46.239Z,1008.91
2019-05-23T06:37:46.302Z,1008.88
2019-05-23T06:38:46.227Z,1008.88
2019-05-23T06:39:46.305Z,1008.86
2019-05-23T06:40:46.229Z,1008.85
2019-05-23T06:41:46.232Z,1008.85
2019-05-23T06:42:50.302Z,1008.83
2019-05-23T06:43:46.348Z,1008.80
2019-05-23T06:44:46.255Z,1008.82
2019-05-23T06:45:46.305Z,1008.83
2019-05-23T06:46:46.204Z,1008.82
2019-05-23T06:47:46.238Z,1008.80
2019-05-23T06:48:46.468Z,1008.82
2019-05-23T06:49:46.219Z,1008.80
2019-05-23T06:50:46.241Z,1008.79
2019-05-23T06:51:46.256Z,1008.75
2019-05-23T06:52:46.195Z,1008.76
2019-05-23T06:53:46.221Z,1008.79
2019-05-23T06:54:46.152Z,1008.72
2019-05-23T06:55:46.262Z,1008.75
2019-05-23T06:56:46.254Z,1008.74
2019-05-23T06:57:46.320Z,1008.75
2019-05-23T06:58:46.330Z,1008.74
2019-05-23T06:59:46.363Z,1008.73
2019-05-23T07:00:46.332Z,1008.72
2019-05-23T07:01:46.315Z,1008.74
2019-05-23T07:02:46.273Z,1008.75
2019-05-23T07:03:46.326Z,1008.74
2019-05-23T07:04:46.274Z,1008.76
2019-05-23T07:05:46.324Z,1008.74
2019-05-23T07:06:46.350Z,1008.75
2019-05-23T07:07:46.253Z,1008.76
2019-05-23T07:08:46.380Z,1008.73
2019-05-23T07:09:46.263Z,1008.74
2019-05-23T07:10:46.258Z,1008.79
2019-05-23T07:11:46.321Z,1008.77
2019-05-23T07:12:46.253Z,1008.78
2019-05-23T07:13:46.323Z,1008.75
2019-05-23T07:14:46.322Z,1008.76
2019-05-23T07:15:46.258Z,1008.74
2019-05-23T07:16:50.093Z,1008.76
2019-05-23T07:17:46.337Z,1008.75
2019-05-23T07:18:46.260Z,1008.77
2019-05-23T07:19:46.261Z,1008.78
2019-05-23T07:20:46.389Z,1008.79
2019-05-23T07:21:46.340Z,1008.78
2019-05-23T07:22:46.404Z,1008.78
2019-05-23T07:23:46.261Z,1008.75
2019-05-23T07:24:57.313Z,1008.78
2019-05-23T07:25:46.263Z,1008.77
2019-05-23T07:26:46.299Z,1008.78
2019-05-23T07:27:46.263Z,1008.79
2019-05-23T07:28:46.334Z,1008.81
2019-05-23T07:29:46.334Z,1008.76
2019-05-23T07:30:46.328Z,1008.76
2019-05-23T07:31:46.322Z,1008.77
2019-05-23T07:32:46.349Z,1008.82
2019-05-23T07:34:01.020Z,1008.79
2019-05-23T07:34:46.267Z,1008.81
2019-05-23T07:35:46.278Z,1008.83
2019-05-23T07:36:46.341Z,1008.78
2019-05-23T07:37:46.348Z,1008.77
2019-05-23T07:38:46.278Z,1008.75
2019-05-23T07:39:46.345Z,1008.75
2019-05-23T07:40:46.381Z,1008.70
2019-05-23T07:41:46.274Z,1008.70
2019-05-23T07:42:46.286Z,1008.70
2019-05-23T07:43:46.367Z,1008.69
2019-05-23T07:44:48.608Z,1008.74
2019-05-23T07:45:46.350Z,1008.73
2019-05-23T07:46:46.284Z,1008.71
2019-05-23T07:47:46.283Z,1008.73
2019-05-23T07:48:46.362Z,1008.71
2019-05-23T07:49:46.349Z,1008.72
2019-05-23T07:50:46.283Z,1008.72
2019-05-23T07:51:46.354Z,1008.74
2019-05-23T07:52:46.352Z,1008.70
2019-05-23T07:53:46.311Z,1008.69
2019-05-23T07:54:46.371Z,1008.70
2019-05-23T07:55:46.301Z,1008.73
2019-05-23T07:56:46.342Z,1008.74
2019-05-23T07:57:46.343Z,1008.76
2019-05-23T07:58:46.234Z,1008.71
2019-05-23T07:59:46.347Z,1008.73
2019-05-23T08:00:46.408Z,1008.73
2019-05-23T08:01:46.304Z,1008.76
2019-05-23T08:02:46.385Z,1008.73
2019-05-23T08:03:46.247Z,1008.71
2019-05-23T08:04:46.273Z,1008.73
2019-05-23T08:05:46.323Z,1008.76
2019-05-23T08:06:48.992Z,1008.74
2019-05-23T08:07:46.436Z,1008.77
2019-05-23T08:08:46.304Z,1008.72
2019-05-23T08:09:46.359Z,1008.74
2019-05-23T08:10:46.310Z,1008.71
2019-05-23T08:11:46.316Z,1008.69
2019-05-23T08:12:46.305Z,1008.67
2019-05-23T08:13:46.372Z,1008.65
2019-05-23T08:14:46.379Z,1008.66
2019-05-23T08:15:46.382Z,1008.63
2019-05-23T08:16:46.370Z,1008.66
2019-05-23T08:17:46.375Z,1008.63
2019-05-23T08:18:46.301Z,1008.61
2019-05-23T08:19:49.716Z,1008.60
2019-05-23T08:20:46.358Z,1008.63
2019-05-23T08:21:46.386Z,1008.60
2019-05-23T08:22:46.364Z,1008.59
2019-05-23T08:23:46.312Z,1008.56
2019-05-23T08:24:50.703Z,1008.56
2019-05-23T08:25:46.310Z,1008.58
2019-05-23T08:26:46.407Z,1008.58
2019-05-23T08:29:00.820Z,1008.54
2019-05-23T08:29:46.383Z,1008.53
2019-05-23T08:30:46.307Z,1008.49
2019-05-23T08:31:46.385Z,1008.47
2019-05-23T08:32:46.384Z,1008.46
2019-05-23T08:33:46.334Z,1008.46
2019-05-23T08:34:46.416Z,1008.48
2019-05-23T08:35:46.313Z,1008.47
2019-05-23T08:36:46.397Z,1008.43
2019-05-23T08:37:46.334Z,1008.45
2019-05-23T08:38:46.387Z,1008.43
2019-05-23T08:39:46.315Z,1008.40
2019-05-23T08:40:46.397Z,1008.45
2019-05-23T08:41:46.433Z,1008.45
2019-05-23T08:42:46.400Z,1008.35
2019-05-23T08:43:46.352Z,1008.37
2019-05-23T08:44:46.397Z,1008.42
2019-05-23T08:45:46.281Z,1008.40
2019-05-23T08:46:46.388Z,1008.41
2019-05-23T08:47:46.306Z,1008.39
2019-05-23T08:48:46.311Z,1008.35
2019-05-23T08:49:46.401Z,1008.34
2019-05-23T08:50:46.393Z,1008.36
2019-05-23T08:51:46.313Z,1008.36
2019-05-23T08:52:46.385Z,1008.34
2019-05-23T08:53:46.390Z,1008.36
2019-05-23T08:54:46.314Z,1008.35
2019-05-23T08:55:46.388Z,1008.31
2019-05-23T08:56:46.313Z,1008.29
2019-05-23T08:57:46.394Z,1008.32
2019-05-23T08:58:46.319Z,1008.32
2019-05-23T08:59:46.458Z,1008.28
2019-05-23T09:00:46.335Z,1008.31
2019-05-23T09:01:46.406Z,1008.32
2019-05-23T09:02:46.397Z,1008.29
2019-05-23T09:03:46.395Z,1008.31
2019-05-23T09:05:03.328Z,1008.33
2019-05-23T09:05:46.343Z,1008.31
2019-05-23T09:06:46.429Z,1008.32
2019-05-23T09:07:46.344Z,1008.30
2019-05-23T09:08:46.409Z,1008.29
2019-05-23T09:09:46.351Z,1008.27
2019-05-23T09:10:46.343Z,1008.25
2019-05-23T09:11:46.412Z,1008.25
2019-05-23T09:12:46.471Z,1008.25
2019-05-23T09:13:46.346Z,1008.25
2019-05-23T09:14:46.345Z,1008.27
2019-05-23T09:15:46.424Z,1008.24
2019-05-23T09:16:46.414Z,1008.19
2019-05-23T09:17:52.964Z,1008.24
2019-05-23T09:18:46.355Z,1008.20
2019-05-23T09:19:46.383Z,1008.20
2019-05-23T09:20:46.422Z,1008.16
2019-05-23T09:21:46.353Z,1008.20
2019-05-23T09:22:46.419Z,1008.17
2019-05-23T09:23:46.373Z,1008.18
2019-05-23T09:24:46.311Z,1008.18
2019-05-23T09:25:46.367Z,1008.16
2019-05-23T09:26:46.338Z,1008.14
2019-05-23T09:27:46.277Z,1008.14
2019-05-23T09:28:46.335Z,1008.14
2019-05-23T09:29:46.366Z,1008.13
2019-05-23T09:30:46.300Z,1008.13
2019-05-23T09:31:46.333Z,1008.13
2019-05-23T09:32:46.375Z,1008.14
2019-05-23T09:33:46.313Z,1008.11
2019-05-23T09:34:46.379Z,1008.17
2019-05-23T09:35:46.336Z,1008.15
2019-05-23T09:36:46.438Z,1008.13
2019-05-23T09:37:46.438Z,1008.18
2019-05-23T09:38:46.334Z,1008.10
2019-05-23T09:39:46.361Z,1008.14
2019-05-23T09:40:46.364Z,1008.12
2019-05-23T09:41:46.492Z,1008.09
2019-05-23T09:42:46.362Z,1008.08
2019-05-23T09:43:46.369Z,1008.09
2019-05-23T09:44:46.462Z,1008.09
2019-05-23T09:45:46.492Z,1008.08
2019-05-23T09:46:46.350Z,1008.05
2019-05-23T09:47:50.737Z,1008.03
2019-05-23T09:48:46.341Z,1008.01
2019-05-23T09:49:53.936Z,1007.98
2019-05-23T09:50:46.358Z,1008.01
2019-05-23T09:51:47.595Z,1007.94
2019-05-23T09:52:46.431Z,1007.98
2019-05-23T09:53:47.733Z,1007.94
2019-05-23T09:54:46.442Z,1007.99
2019-05-23T09:55:46.431Z,1007.95
2019-05-23T09:56:46.447Z,1007.95
2019-05-23T09:57:46.374Z,1007.94
2019-05-23T09:58:46.452Z,1007.92
2019-05-23T09:59:46.449Z,1007.93
2019-05-23T10:00:46.448Z,1007.93
2019-05-23T10:01:46.388Z,1007.92
2019-05-23T10:02:46.447Z,1007.92
2019-05-23T10:03:46.391Z,1007.91
2019-05-23T10:04:46.459Z,1007.88
2019-05-23T10:05:46.452Z,1007.90
2019-05-23T10:06:46.575Z,1007.85
2019-05-23T10:07:46.414Z,1007.83
2019-05-23T10:08:46.392Z,1007.84
2019-05-23T10:09:46.468Z,1007.80
2019-05-23T10:10:46.383Z,1007.82
2019-05-23T10:11:46.383Z,1007.85
2019-05-23T10:12:46.461Z,1007.81
2019-05-23T10:13:46.460Z,1007.79
2019-05-23T10:14:46.464Z,1007.77
2019-05-23T10:15:46.488Z,1007.74
2019-05-23T10:16:46.396Z,1007.78
2019-05-23T10:17:46.376Z,1007.76
2019-05-23T10:18:46.448Z,1007.74
2019-05-23T10:19:46.387Z,1007.79
2019-05-23T10:20:46.442Z,1007.75
2019-05-23T10:21:46.457Z,1007.74
2019-05-23T10:22:46.372Z,1007.77
2019-05-23T10:23:46.456Z,1007.80
2019-05-23T10:24:46.333Z,1007.76
2019-05-23T10:25:46.449Z,1007.72
2019-05-23T10:26:46.501Z,1007.73
2019-05-23T10:27:46.436Z,1007.75
2019-05-23T10:28:46.472Z,1007.70
2019-05-23T10:29:46.429Z,1007.73
2019-05-23T10:30:46.401Z,1007.75
2019-05-23T10:31:46.488Z,1007.75
2019-05-23T10:32:46.404Z,1007.72
2019-05-23T10:33:46.478Z,1007.71
2019-05-23T10:34:46.490Z,1007.69
2019-05-23T10:35:59.624Z,1007.70
2019-05-23T10:36:46.407Z,1007.70
2019-05-23T10:37:46.365Z,1007.71
2019-05-23T10:38:46.479Z,1007.70
2019-05-23T10:39:46.516Z,1007.66
2019-05-23T10:40:46.426Z,1007.65
2019-05-23T10:41:46.542Z,1007.65
2019-05-23T10:42:46.516Z,1007.63
2019-05-23T10:43:46.484Z,1007.62
2019-05-23T10:44:46.538Z,1007.59
2019-05-23T10:45:46.509Z,1007.60
2019-05-23T10:46:46.493Z,1007.61
2019-05-23T10:47:46.495Z,1007.61
2019-05-23T10:48:46.500Z,1007.59
2019-05-23T10:49:46.485Z,1007.62
2019-05-23T10:50:46.459Z,1007.63
2019-05-23T10:51:46.495Z,1007.56
2019-05-23T10:52:46.427Z,1007.59
2019-05-23T10:53:46.379Z,1007.53
2019-05-23T10:54:46.417Z,1007.56
2019-05-23T10:55:46.493Z,1007.50
2019-05-23T10:56:46.407Z,1007.52
2019-05-23T10:57:46.475Z,1007.52
2019-05-23T10:58:46.413Z,1007.49
2019-05-23T10:59:46.480Z,1007.49
2019-05-23T11:00:46.413Z,1007.52
2019-05-23T11:01:46.483Z,1007.49
2019-05-23T11:02:46.456Z,1007.46
2019-05-23T11:03:46.421Z,1007.46
2019-05-23T11:04:46.485Z,1007.44
2019-05-23T11:05:46.412Z,1007.42
2019-05-23T11:06:46.487Z,1007.45
2019-05-23T11:07:46.362Z,1007.38
2019-05-23T11:08:46.375Z,1007.34
2019-05-23T11:09:46.398Z,1007.36
2019-05-23T11:10:46.551Z,1007.34
2019-05-23T11:11:46.650Z,1007.35
2019-05-23T11:12:46.436Z,1007.32
2019-05-23T11:13:46.455Z,1007.30
2019-05-23T11:14:46.381Z,1007.28
2019-05-23T11:15:46.482Z,1007.27
2019-05-23T11:16:46.507Z,1007.28
2019-05-23T11:17:46.506Z,1007.24
2019-05-23T11:18:46.437Z,1007.29
2019-05-23T11:19:46.513Z,1007.27
2019-05-23T11:20:46.440Z,1007.26
2019-05-23T11:21:46.542Z,1007.24
2019-05-23T11:22:46.443Z,1007.23
2019-05-23T11:23:46.439Z,1007.24
2019-05-23T11:24:46.521Z,1007.28
2019-05-23T11:25:46.515Z,1007.26
2019-05-23T11:26:46.382Z,1007.25
2019-05-23T11:27:46.462Z,1007.22
2019-05-23T11:28:46.505Z,1007.30
2019-05-23T11:29:46.501Z,1007.26
2019-05-23T11:30:46.454Z,1007.28
2019-05-23T11:31:46.452Z,1007.28
2019-05-23T11:32:46.412Z,1007.21
2019-05-23T11:33:46.455Z,1007.27
2019-05-23T11:34:46.506Z,1007.27
2019-05-23T11:35:46.459Z,1007.23
2019-05-23T11:36:46.467Z,1007.32
2019-05-23T11:37:46.451Z,1007.28
2019-05-23T11:38:46.583Z,1007.29
2019-05-23T11:39:49.759Z,1007.29
2019-05-23T11:40:46.530Z,1007.22
2019-05-23T11:41:46.540Z,1007.27
2019-05-23T11:42:46.521Z,1007.26
2019-05-23T11:43:46.462Z,1007.23
2019-05-23T11:44:46.453Z,1007.22
2019-05-23T11:45:46.591Z,1007.25
2019-05-23T11:46:46.442Z,1007.24
2019-05-23T11:47:46.383Z,1007.22
2019-05-23T11:48:46.481Z,1007.18
2019-05-23T11:49:46.833Z,1007.17
2019-05-23T11:50:46.471Z,1007.18
2019-05-23T11:51:46.481Z,1007.16
2019-05-23T11:52:46.459Z,1007.15
2019-05-23T11:54:04.079Z,1007.13
2019-05-23T11:54:46.446Z,1007.12
2019-05-23T11:55:46.485Z,1007.10
2019-05-23T11:56:46.536Z,1007.09
2019-05-23T11:57:46.477Z,1007.09
2019-05-23T11:58:46.491Z,1007.08
2019-05-23T11:59:46.470Z,1007.07
2019-05-23T12:00:46.574Z,1007.08
2019-05-23T12:01:46.536Z,1007.07
2019-05-23T12:02:46.481Z,1007.05
2019-05-23T12:03:46.482Z,1007.05
2019-05-23T12:04:46.479Z,1007.01
2019-05-23T12:05:46.491Z,1007.01
2019-05-23T12:06:55.138Z,1006.97
2019-05-23T12:07:46.532Z,1006.94